createdAt,value
2022-10-24T00:01:17.488Z,43.13
2022-10-24T00:03:44.470Z,48.63
2022-10-24T00:06:12.606Z,48.72
2022-10-24T00:08:40.423Z,45.45
2022-10-24T00:11:27.430Z,53.45
2022-10-24T00:13:56.397Z,49.22
2022-10-24T00:16:23.258Z,43.00
2022-10-24T00:18:49.945Z,51.97
2022-10-24T00:21:16.755Z,36.83
2022-10-24T00:23:43.589Z,41.42
2022-10-24T00:26:11.361Z,39.45
2022-10-24T00:28:39.127Z,39.15
2022-10-24T00:31:07.620Z,39.45
2022-10-24T00:33:34.674Z,37.67
2022-10-24T00:36:01.303Z,35.05
2022-10-24T00:38:27.917Z,44.22
2022-10-24T00:40:54.675Z,38.20
2022-10-24T00:43:24.638Z,34.10
2022-10-24T00:45:59.541Z,36.05
2022-10-24T00:48:40.362Z,35.83
2022-10-24T00:51:27.311Z,35.67
2022-10-24T00:54:06.551Z,32.13
2022-10-24T00:56:37.182Z,30.45
2022-10-24T00:59:06.989Z,31.70
2022-10-24T01:01:34.778Z,44.05
2022-10-24T01:04:01.789Z,30.33
2022-10-24T01:06:49.343Z,28.70
2022-10-24T01:09:38.366Z,30.45
2022-10-24T01:12:08.001Z,32.92
2022-10-24T01:15:09.932Z,45.15
2022-10-24T01:18:01.304Z,28.65
2022-10-24T01:20:28.027Z,28.85
2022-10-24T01:23:12.927Z,29.58
2022-10-24T01:25:39.471Z,30.73
2022-10-24T01:28:14.669Z,32.83
2022-10-24T01:30:49.884Z,25.63
2022-10-24T01:33:19.411Z,28.02
2022-10-24T01:35:58.603Z,31.42
2022-10-24T01:38:42.079Z,22.77
2022-10-24T01:41:16.421Z,27.40
2022-10-24T01:44:02.405Z,29.52
2022-10-24T01:46:54.119Z,25.10
2022-10-24T01:49:26.180Z,28.88
2022-10-24T01:51:59.466Z,28.20
2022-10-24T01:54:27.027Z,42.58
2022-10-24T01:56:53.621Z,31.27
2022-10-24T01:59:28.240Z,26.83
2022-10-24T02:02:01.896Z,34.70
2022-10-24T02:04:31.411Z,29.80
2022-10-24T02:07:02.452Z,27.38
2022-10-24T02:09:32.457Z,23.70
2022-10-24T02:12:00.796Z,35.50
2022-10-24T02:14:42.970Z,27.20
2022-10-24T02:17:11.309Z,26.42
2022-10-24T02:19:38.505Z,31.35
2022-10-24T02:22:26.194Z,31.48
2022-10-24T02:25:00.253Z,31.25
2022-10-24T02:27:35.457Z,40.38
2022-10-24T02:30:13.968Z,26.85
2022-10-24T02:32:43.890Z,35.50
2022-10-24T02:35:14.236Z,33.25
2022-10-24T02:37:47.579Z,27.65
2022-10-24T02:40:17.129Z,28.23
2022-10-24T02:42:46.048Z,31.10
2022-10-24T02:45:15.133Z,36.92
2022-10-24T02:47:44.461Z,31.50
2022-10-24T02:50:12.578Z,27.33
2022-10-24T02:52:40.126Z,38.30
2022-10-24T02:55:07.545Z,28.10
2022-10-24T02:57:34.214Z,29.60
2022-10-24T03:00:00.851Z,30.98
2022-10-24T03:02:27.652Z,29.75
2022-10-24T03:04:54.500Z,29.42
2022-10-24T03:07:21.302Z,33.80
2022-10-24T03:09:47.990Z,26.55
2022-10-24T03:12:16.368Z,29.60
2022-10-24T03:14:43.348Z,27.13
2022-10-24T03:17:09.982Z,30.85
2022-10-24T03:19:36.653Z,26.35
2022-10-24T03:22:03.263Z,26.17
2022-10-24T03:24:43.426Z,30.30
2022-10-24T03:27:10.990Z,30.02
2022-10-24T03:29:37.726Z,32.53
2022-10-24T03:32:05.473Z,32.47
2022-10-24T03:34:32.432Z,22.75
2022-10-24T03:36:59.111Z,34.33
2022-10-24T03:39:25.781Z,35.35
2022-10-24T03:41:52.429Z,25.65
2022-10-24T03:44:19.024Z,30.27
2022-10-24T03:46:45.610Z,30.75
2022-10-24T03:49:12.227Z,33.42
2022-10-24T03:51:38.922Z,29.25
2022-10-24T03:54:05.573Z,36.45
2022-10-24T03:56:32.169Z,33.80
2022-10-24T03:58:58.825Z,33.25
2022-10-24T04:01:25.642Z,29.77
2022-10-24T04:03:52.270Z,31.40
2022-10-24T04:06:18.946Z,27.80
2022-10-24T04:08:45.591Z,34.53
2022-10-24T04:11:12.191Z,32.65
2022-10-24T04:13:38.809Z,28.35
2022-10-24T04:16:05.818Z,23.55
2022-10-24T04:18:32.442Z,24.42
2022-10-24T04:20:59.085Z,32.05
2022-10-24T04:23:26.843Z,20.85
2022-10-24T04:25:53.768Z,26.33
2022-10-24T04:28:20.395Z,30.42
2022-10-24T04:30:46.979Z,26.02
2022-10-24T04:33:13.614Z,21.38
2022-10-24T04:35:40.205Z,21.40
2022-10-24T04:38:06.866Z,27.65
2022-10-24T04:40:33.454Z,29.48
2022-10-24T04:43:00.078Z,28.33
2022-10-24T04:45:26.756Z,19.77
2022-10-24T04:47:53.327Z,25.90
2022-10-24T04:50:19.953Z,24.80
2022-10-24T04:52:46.639Z,26.67
2022-10-24T04:55:13.272Z,24.42
2022-10-24T04:57:39.843Z,31.73
2022-10-24T05:00:07.348Z,21.35
2022-10-24T05:02:34.088Z,26.65
2022-10-24T05:05:00.825Z,27.08
2022-10-24T05:07:27.488Z,24.45
2022-10-24T05:09:54.093Z,36.10
2022-10-24T05:12:20.720Z,28.10
2022-10-24T05:14:47.778Z,24.88
2022-10-24T05:17:14.576Z,20.25
2022-10-24T05:19:41.781Z,21.42
2022-10-24T05:22:10.745Z,20.73
2022-10-24T05:24:37.959Z,27.95
2022-10-24T05:27:04.637Z,21.63
2022-10-24T05:29:31.390Z,27.75
2022-10-24T05:31:58.043Z,33.40
2022-10-24T05:34:26.015Z,16.02
2022-10-24T05:36:52.753Z,27.40
2022-10-24T05:39:19.367Z,31.90
2022-10-24T05:41:47.135Z,27.02
2022-10-24T05:44:15.486Z,36.13
2022-10-24T05:46:42.112Z,19.13
2022-10-24T05:49:08.725Z,30.30
2022-10-24T05:51:35.355Z,23.80
2022-10-24T05:54:01.963Z,23.85
2022-10-24T05:56:28.609Z,26.58
2022-10-24T05:58:57.205Z,22.50
2022-10-24T06:01:24.392Z,24.05
2022-10-24T06:03:51.073Z,34.85
2022-10-24T06:06:17.860Z,24.02
2022-10-24T06:08:44.538Z,27.05
2022-10-24T06:11:11.560Z,25.38
2022-10-24T06:13:38.673Z,27.60
2022-10-24T06:16:10.108Z,29.85
2022-10-24T06:18:37.798Z,18.65
2022-10-24T06:21:06.023Z,23.55
2022-10-24T06:23:32.916Z,22.38
2022-10-24T06:25:59.754Z,25.05
2022-10-24T06:28:26.547Z,23.73
2022-10-24T06:30:56.514Z,26.25
2022-10-24T06:33:23.149Z,26.30
2022-10-24T06:35:49.797Z,30.60
2022-10-24T06:38:16.384Z,23.38
2022-10-24T06:40:43.060Z,18.88
2022-10-24T06:43:09.729Z,23.38
2022-10-24T06:45:38.354Z,25.35
2022-10-24T06:48:05.101Z,20.67
2022-10-24T06:50:31.925Z,34.85
2022-10-24T06:52:58.613Z,34.30
2022-10-24T06:55:25.183Z,34.63
2022-10-24T06:57:53.624Z,26.38
2022-10-24T07:00:20.347Z,27.52
2022-10-24T07:02:47.395Z,25.20
2022-10-24T07:05:14.376Z,31.00
2022-10-24T07:07:43.147Z,33.53
2022-10-24T07:10:13.016Z,23.67
2022-10-24T07:15:07.213Z,24.38
2022-10-24T07:17:42.323Z,26.55
2022-10-24T07:20:10.117Z,22.27
2022-10-24T07:22:37.343Z,22.08
2022-10-24T07:25:05.723Z,20.85
2022-10-24T07:27:32.629Z,20.67
2022-10-24T07:30:03.116Z,24.67
2022-10-24T07:32:32.484Z,24.52
2022-10-24T07:34:59.116Z,34.53
2022-10-24T07:39:57.533Z,23.50
2022-10-24T07:42:24.149Z,24.10
2022-10-24T07:44:50.785Z,18.67
2022-10-24T07:47:17.439Z,24.80
2022-10-24T07:49:44.115Z,21.90
2022-10-24T07:52:10.817Z,22.30
2022-10-24T07:54:37.737Z,15.25
2022-10-24T07:57:04.881Z,24.13
2022-10-24T07:59:41.755Z,19.40
2022-10-24T08:02:11.942Z,21.75
2022-10-24T08:04:39.266Z,21.10
2022-10-24T08:07:13.027Z,22.95
2022-10-24T08:09:45.440Z,23.95
2022-10-24T08:12:12.342Z,21.30
2022-10-24T08:14:40.482Z,13.05
2022-10-24T08:17:07.815Z,22.90
2022-10-24T08:19:35.331Z,15.20
2022-10-24T08:22:02.730Z,22.25
2022-10-24T08:24:29.402Z,19.10
2022-10-24T08:26:56.742Z,21.77
2022-10-24T08:29:23.688Z,13.98
2022-10-24T08:31:52.432Z,26.33
2022-10-24T08:34:19.790Z,21.13
2022-10-24T08:36:49.540Z,17.92
2022-10-24T08:41:47.907Z,16.73
2022-10-24T08:44:35.661Z,14.88
2022-10-24T08:47:19.348Z,26.60
2022-10-24T08:49:53.890Z,20.42
2022-10-24T08:52:43.255Z,24.83
2022-10-24T08:55:31.049Z,18.02
2022-10-24T08:58:06.108Z,18.85
2022-10-24T09:00:42.631Z,18.80
2022-10-24T09:03:12.230Z,23.40
2022-10-24T09:05:51.561Z,15.35
2022-10-24T09:08:43.607Z,16.10
2022-10-24T09:11:26.118Z,20.08
2022-10-24T09:13:53.942Z,18.38
2022-10-24T09:16:23.068Z,22.10
2022-10-24T09:18:54.092Z,14.23
2022-10-24T09:21:22.482Z,17.83
2022-10-24T09:23:50.565Z,16.85
2022-10-24T09:26:26.532Z,19.83
2022-10-24T09:28:55.731Z,23.05
2022-10-24T09:31:24.720Z,20.58
2022-10-24T09:33:52.400Z,21.63
2022-10-24T09:36:21.166Z,20.50
2022-10-24T09:38:49.104Z,14.20
2022-10-24T09:41:29.136Z,14.93
2022-10-24T09:44:01.192Z,18.13
2022-10-24T09:46:29.807Z,15.57
2022-10-24T09:49:06.846Z,21.10
2022-10-24T09:51:37.458Z,18.02
2022-10-24T09:54:19.347Z,17.30
2022-10-24T09:56:54.660Z,15.15
2022-10-24T09:59:44.266Z,14.88
2022-10-24T10:04:38.792Z,22.70
2022-10-24T10:07:25.683Z,17.23
2022-10-24T10:09:56.756Z,16.90
2022-10-24T10:12:37.191Z,17.25
2022-10-24T10:15:17.742Z,16.85
2022-10-24T10:17:56.991Z,28.95
2022-10-24T10:20:39.012Z,15.30
2022-10-24T10:23:26.934Z,18.10
2022-10-24T10:26:24.744Z,14.80
2022-10-24T10:29:04.766Z,19.85
2022-10-24T10:32:07.037Z,18.77
2022-10-24T10:34:43.333Z,19.90
2022-10-24T10:37:30.159Z,18.05
2022-10-24T10:40:27.453Z,13.25
2022-10-24T10:43:29.337Z,11.57
2022-10-24T10:46:24.427Z,19.13
2022-10-24T10:49:32.723Z,14.85
2022-10-24T10:52:08.098Z,16.25
2022-10-24T10:54:57.826Z,19.42
2022-10-24T10:57:37.667Z,10.63
2022-10-24T11:00:33.241Z,16.27
2022-10-24T11:03:09.437Z,12.85
2022-10-24T11:06:07.382Z,10.50
2022-10-24T11:09:01.195Z,12.98
2022-10-24T11:11:31.967Z,10.60
2022-10-24T11:14:17.396Z,11.60
2022-10-24T11:16:45.825Z,9.10
2022-10-24T11:19:44.553Z,12.73
2022-10-24T11:22:19.277Z,13.88
2022-10-24T11:24:55.598Z,15.07
2022-10-24T11:27:43.820Z,11.70
2022-10-24T11:30:15.360Z,10.85
2022-10-24T11:32:52.291Z,18.15
2022-10-24T11:35:40.342Z,8.05
2022-10-24T11:38:18.436Z,12.20
2022-10-24T11:40:49.221Z,18.25
2022-10-24T11:43:24.724Z,18.67
2022-10-24T11:46:04.258Z,10.60
2022-10-24T11:48:38.427Z,7.05
2022-10-24T11:51:21.713Z,10.90
2022-10-24T11:53:55.414Z,6.32
2022-10-24T11:56:40.168Z,7.90
2022-10-24T11:59:12.341Z,10.52
2022-10-24T12:02:15.155Z,8.77
2022-10-24T12:04:57.020Z,7.53
2022-10-24T12:07:33.671Z,8.32
2022-10-24T12:10:21.942Z,7.55
2022-10-24T12:12:51.512Z,8.27
2022-10-24T12:15:41.370Z,6.55
2022-10-24T12:18:30.151Z,6.68
2022-10-24T12:21:02.596Z,6.85
2022-10-24T12:23:31.482Z,5.90
2022-10-24T12:26:03.450Z,4.90
2022-10-24T12:28:30.289Z,9.13
2022-10-24T12:31:14.622Z,3.80
2022-10-24T12:33:43.251Z,2.25
2022-10-24T12:36:10.554Z,5.53
2022-10-24T12:38:37.287Z,9.10
2022-10-24T12:41:09.609Z,16.00
2022-10-24T12:43:40.678Z,6.57
2022-10-24T12:46:39.404Z,3.13
2022-10-24T12:49:08.725Z,5.50
2022-10-24T12:51:40.147Z,2.75
2022-10-24T12:54:12.759Z,5.63
2022-10-24T12:56:51.528Z,10.68
2022-10-24T12:59:22.575Z,5.65
2022-10-24T13:01:51.519Z,1.67
2022-10-24T13:04:48.695Z,6.82
2022-10-24T13:07:28.280Z,3.55
2022-10-24T13:13:02.483Z,5.40
2022-10-24T13:15:51.378Z,5.13
2022-10-24T13:18:50.644Z,4.20
2022-10-24T13:21:31.146Z,6.22
2022-10-24T13:24:27.168Z,6.85
2022-10-24T13:26:55.698Z,4.97
2022-10-24T13:29:28.232Z,4.22
2022-10-24T13:32:18.682Z,6.93
2022-10-24T13:34:50.401Z,4.47
2022-10-24T13:39:51.794Z,4.38
2022-10-24T13:42:27.412Z,3.38
2022-10-24T13:45:00.346Z,2.88
2022-10-24T13:47:40.339Z,5.13
2022-10-24T13:50:19.821Z,2.30
2022-10-24T13:52:59.823Z,4.88
2022-10-24T13:55:44.290Z,9.38
2022-10-24T13:58:21.761Z,2.83
2022-10-24T14:01:03.131Z,4.57
2022-10-24T14:03:31.581Z,7.63
2022-10-24T14:06:00.621Z,1.67
2022-10-24T14:08:31.408Z,7.38
2022-10-24T14:11:02.003Z,7.97
2022-10-24T14:13:31.887Z,4.70
2022-10-24T14:16:05.521Z,2.90
2022-10-24T14:18:32.864Z,8.27
2022-10-24T14:21:02.507Z,4.30
2022-10-24T14:26:07.240Z,6.28
2022-10-24T14:28:37.128Z,5.88
2022-10-24T14:31:08.499Z,4.15
2022-10-24T14:33:51.331Z,6.47
2022-10-24T14:36:21.253Z,6.45
2022-10-24T14:38:50.752Z,10.30
2022-10-24T14:41:20.200Z,5.68
2022-10-24T14:43:47.112Z,6.05
2022-10-24T14:46:13.677Z,6.05
2022-10-24T14:48:46.708Z,6.40
2022-10-24T14:51:39.039Z,6.13
2022-10-24T14:54:17.496Z,4.85
2022-10-24T14:56:44.526Z,7.65
2022-10-24T15:06:23.085Z,6.03
2022-10-24T15:09:04.597Z,5.72
2022-10-24T15:11:37.604Z,10.65
2022-10-24T15:14:06.962Z,7.05
2022-10-24T15:16:39.567Z,2.78
2022-10-24T15:19:12.482Z,7.70
2022-10-24T15:21:43.070Z,4.13
2022-10-24T15:24:43.397Z,6.57
2022-10-24T15:27:12.646Z,5.15
2022-10-24T15:29:40.541Z,5.97
2022-10-24T15:32:10.264Z,8.45
2022-10-24T15:37:04.056Z,5.95
2022-10-24T15:39:30.670Z,6.25
2022-10-24T15:41:57.516Z,5.20
2022-10-24T15:44:30.535Z,9.27
2022-10-24T15:46:57.356Z,11.63
2022-10-24T15:49:24.024Z,9.38
2022-10-24T15:51:51.721Z,7.50
2022-10-24T15:54:21.015Z,5.93
2022-10-24T15:56:47.855Z,4.95
2022-10-24T15:59:15.175Z,7.80
2022-10-24T16:01:47.477Z,9.50
2022-10-24T16:04:14.589Z,9.55
2022-10-24T16:06:41.281Z,5.45
2022-10-24T16:09:15.387Z,7.10
2022-10-24T16:11:42.426Z,5.70
2022-10-24T16:14:16.703Z,5.68
2022-10-24T16:16:43.680Z,13.57
2022-10-24T16:19:10.567Z,5.88
2022-10-24T16:21:39.094Z,4.47
2022-10-24T16:24:06.502Z,5.95
2022-10-24T16:26:33.465Z,4.70
2022-10-24T16:29:00.118Z,8.68
2022-10-24T16:31:26.814Z,6.47
2022-10-24T16:33:53.497Z,4.43
2022-10-24T16:36:22.349Z,11.48
2022-10-24T16:38:51.899Z,3.55
2022-10-24T16:41:21.420Z,8.00
2022-10-24T16:43:49.980Z,9.98
2022-10-24T16:46:20.295Z,4.13
2022-10-24T16:48:47.857Z,9.55
2022-10-24T16:51:18.031Z,9.27
2022-10-24T16:53:44.956Z,9.50
2022-10-24T16:56:13.042Z,6.22
2022-10-24T16:58:40.422Z,6.80
2022-10-24T17:01:10.427Z,6.50
2022-10-24T17:03:37.866Z,7.57
2022-10-24T17:06:05.479Z,3.75
2022-10-24T17:08:32.768Z,11.77
2022-10-24T17:11:00.861Z,105.03
2022-10-24T17:13:28.589Z,52.65
2022-10-24T17:15:55.645Z,51.63
2022-10-24T17:18:25.371Z,14.13
2022-10-24T17:23:25.692Z,11.38
2022-10-24T17:25:52.871Z,5.35
2022-10-24T17:28:19.897Z,3.60
2022-10-24T17:30:46.886Z,3.40
2022-10-24T17:33:14.226Z,8.02
2022-10-24T17:35:47.823Z,13.90
2022-10-24T17:38:14.386Z,12.38
2022-10-24T17:40:44.695Z,13.73
2022-10-24T17:43:25.365Z,5.38
2022-10-24T17:45:54.725Z,10.13
2022-10-24T17:48:21.837Z,10.40
2022-10-24T17:50:49.334Z,7.28
2022-10-24T17:53:17.823Z,12.15
2022-10-24T17:55:46.604Z,7.15
2022-10-24T17:58:14.365Z,12.13
2022-10-24T18:00:41.146Z,9.63
2022-10-24T18:03:08.565Z,9.40
2022-10-24T18:05:38.239Z,12.52
2022-10-24T18:08:07.691Z,9.05
2022-10-24T18:10:37.074Z,10.77
2022-10-24T18:13:03.854Z,16.52
2022-10-24T18:15:30.566Z,9.82
2022-10-24T18:17:57.246Z,7.45
2022-10-24T18:20:24.448Z,6.13
2022-10-24T18:22:51.250Z,6.97
2022-10-24T18:25:21.940Z,7.85
2022-10-24T18:27:50.721Z,8.60
2022-10-24T18:30:19.430Z,4.80
2022-10-24T18:32:46.882Z,15.65
2022-10-24T18:35:13.918Z,4.18
2022-10-24T18:37:40.897Z,9.13
2022-10-24T18:40:09.319Z,3.55
2022-10-24T18:42:45.618Z,10.13
2022-10-24T18:45:19.721Z,31.58
2022-10-24T18:47:47.324Z,42.40
2022-10-24T18:50:20.287Z,26.38
2022-10-24T18:53:04.549Z,28.80
2022-10-24T18:55:33.459Z,9.90
2022-10-24T18:58:00.494Z,5.22
2022-10-24T19:00:29.337Z,5.75
2022-10-24T19:03:21.805Z,8.13
2022-10-24T19:05:55.632Z,11.98
2022-10-24T19:08:24.364Z,13.40
2022-10-24T19:10:53.241Z,12.68
2022-10-24T19:13:20.096Z,8.68
2022-10-24T19:16:11.026Z,11.02
2022-10-24T19:18:37.887Z,5.20
2022-10-24T19:21:05.222Z,11.57
2022-10-24T19:23:31.963Z,10.73
2022-10-24T19:25:58.726Z,7.35
2022-10-24T19:28:25.349Z,11.70
2022-10-24T19:30:52.043Z,12.75
2022-10-24T19:33:18.756Z,10.75
2022-10-24T19:35:48.845Z,17.48
2022-10-24T19:38:17.314Z,11.18
2022-10-24T19:40:58.396Z,10.90
2022-10-24T19:43:28.931Z,13.32
2022-10-24T19:48:43.374Z,12.70
2022-10-24T19:51:12.814Z,14.55
2022-10-24T19:53:41.991Z,11.93
2022-10-24T19:56:10.030Z,10.65
2022-10-24T19:58:37.454Z,10.10
2022-10-24T20:01:15.864Z,15.63
2022-10-24T20:03:44.895Z,11.32
2022-10-24T20:06:12.915Z,11.30
2022-10-24T20:08:39.745Z,11.38
2022-10-24T20:11:07.801Z,12.90
2022-10-24T20:13:35.081Z,9.25
2022-10-24T20:16:05.004Z,8.80
2022-10-24T20:18:33.883Z,14.65
2022-10-24T20:21:04.203Z,12.25
2022-10-24T20:23:31.161Z,9.52
2022-10-24T20:26:05.659Z,9.10
2022-10-24T20:28:38.523Z,6.50
2022-10-24T20:31:06.792Z,9.27
2022-10-24T20:33:34.268Z,11.75
2022-10-24T20:36:01.676Z,13.73
2022-10-24T20:38:28.929Z,12.10
2022-10-24T20:41:01.605Z,22.05
2022-10-24T20:43:29.274Z,16.15
2022-10-24T20:45:56.060Z,12.35
2022-10-24T20:48:22.925Z,10.45
2022-10-24T20:50:49.557Z,16.02
2022-10-24T20:53:16.256Z,6.28
2022-10-24T20:55:44.605Z,6.88
2022-10-24T20:58:13.557Z,14.67
2022-10-24T21:03:11.980Z,8.95
2022-10-24T21:05:38.756Z,9.30
2022-10-24T21:08:05.688Z,11.80
2022-10-24T21:10:32.298Z,11.25
2022-10-24T21:12:59.054Z,12.20
2022-10-24T21:15:25.671Z,7.28
2022-10-24T21:17:52.332Z,12.82
2022-10-24T21:20:19.257Z,11.05
2022-10-24T21:22:45.927Z,14.63
2022-10-24T21:25:12.658Z,9.18
2022-10-24T21:27:39.382Z,9.75
2022-10-24T21:30:10.909Z,11.40
2022-10-24T21:32:40.279Z,15.18
2022-10-24T21:35:07.267Z,10.73
2022-10-24T21:37:33.957Z,12.00
2022-10-24T21:40:00.675Z,13.98
2022-10-24T21:42:29.953Z,6.38
2022-10-24T21:44:56.811Z,9.63
2022-10-24T21:47:23.431Z,13.88
2022-10-24T21:49:50.201Z,9.55
2022-10-24T21:52:16.867Z,7.93
2022-10-24T21:54:43.531Z,13.30
2022-10-24T21:57:10.147Z,14.00
2022-10-24T21:59:36.852Z,6.22
2022-10-24T22:02:03.556Z,11.90
2022-10-24T22:04:30.319Z,14.90
2022-10-24T22:06:56.990Z,14.65
2022-10-24T22:09:23.796Z,7.72
2022-10-24T22:11:50.533Z,8.27
2022-10-24T22:14:19.065Z,9.90
2022-10-24T22:16:46.481Z,14.65
2022-10-24T22:19:13.962Z,19.95
2022-10-24T22:21:43.566Z,16.20
2022-10-24T22:24:16.127Z,9.98
2022-10-24T22:26:43.558Z,7.80
2022-10-24T22:29:13.361Z,17.75
2022-10-24T22:31:40.567Z,12.27
2022-10-24T22:34:08.069Z,12.60
2022-10-24T22:36:50.005Z,8.23
2022-10-24T22:39:20.046Z,10.77
2022-10-24T22:41:47.478Z,13.13
2022-10-24T22:44:17.936Z,6.35
2022-10-24T22:47:19.737Z,11.57
2022-10-24T22:50:11.523Z,14.48
2022-10-24T22:52:38.453Z,10.00
2022-10-24T22:55:12.564Z,11.10
2022-10-24T22:57:39.851Z,6.03
2022-10-24T23:00:07.292Z,9.80
2022-10-24T23:02:38.045Z,7.97
2022-10-24T23:05:12.140Z,14.73
2022-10-24T23:07:57.168Z,13.68
2022-10-24T23:10:25.167Z,15.73
2022-10-24T23:12:52.624Z,9.88
2022-10-24T23:15:20.635Z,37.28
2022-10-24T23:17:48.694Z,65.15
2022-10-24T23:20:27.497Z,51.38
2022-10-24T23:23:09.017Z,29.60
2022-10-24T23:25:49.640Z,22.02
2022-10-24T23:28:38.998Z,19.40
2022-10-24T23:31:05.881Z,11.93
2022-10-24T23:33:32.914Z,9.43
2022-10-24T23:36:00.517Z,13.57
2022-10-24T23:38:27.734Z,10.95
2022-10-24T23:40:54.789Z,9.90
2022-10-24T23:43:23.221Z,16.65
2022-10-24T23:45:58.437Z,7.95
2022-10-24T23:49:19.523Z,8.85
2022-10-24T23:52:03.119Z,7.93
2022-10-24T23:54:32.615Z,9.55
2022-10-24T23:56:59.836Z,8.93
2022-10-24T23:59:26.550Z,9.40
